LYBE/BEG METAR and TAF weather

Enter ICAO airport designator
Station Type Date Time Source
LYBE METAR 2021/07/30 06:30 UTC NOAA

LYBE 300630Z 00000KT CAVOK 27/18 Q1013 NOSIG


Station Type Date Time Source
LYBE Decoded METAR 2021/07/30 06:30 UTC NOAA

Beograd / Surcin, Serbia and Montenegro (LYBE) 44-49N 020-17E 99M
Jul 30, 2021 - 02:30 AM EDT / 2021.07.30 0630 UTC
Wind: Calm:0
Visibility: greater than 7 mile(s):0
Temperature: 80 F (27 C)
Dew Point: 64 F (18 C)
Relative Humidity: 57%
Pressure (altimeter): 29.91 in. Hg (1013 hPa)
ob: LYBE 300630Z 00000KT CAVOK 27/18 Q1013 NOSIG
cycle: 6

Station Type Date Time Source
LYBE TAF 2021/07/30 06:23 UTC NOAA

TAF LYBE 300500Z 3006/3106 02006KT CAVOK TX35/3013Z TN24/3103Z

Example: see airport list